createdAt,value
2019-03-15T00:01:09.741Z,94669.91
2019-03-15T00:03:37.037Z,94668.91
2019-03-15T00:06:04.379Z,94667.88
2019-03-15T00:08:31.767Z,94663.44
2019-03-15T00:10:59.101Z,94661.76
2019-03-15T00:13:26.402Z,94665.00
2019-03-15T00:15:53.718Z,94668.33
2019-03-15T00:18:21.038Z,94671.30
2019-03-15T00:20:48.517Z,94673.35
2019-03-15T00:23:15.882Z,94656.86
2019-03-15T00:25:43.180Z,94656.29
2019-03-15T00:28:11.457Z,94643.34
2019-03-15T00:30:38.779Z,94643.52
2019-03-15T00:33:06.118Z,94630.41
2019-03-15T00:35:33.542Z,94645.70
2019-03-15T00:38:01.014Z,94645.97
2019-03-15T00:40:28.317Z,94655.50
2019-03-15T00:42:55.637Z,94658.56
2019-03-15T00:45:22.977Z,94653.28
2019-03-15T00:47:50.318Z,94638.00
2019-03-15T00:50:17.677Z,94630.59
2019-03-15T00:52:45.037Z,94634.78
2019-03-15T00:55:12.368Z,94640.86
2019-03-15T00:57:39.691Z,94645.31
2019-03-15T01:00:08.976Z,94622.73
2019-03-15T01:02:36.634Z,94642.62
2019-03-15T01:05:04.541Z,94654.84
2019-03-15T01:07:31.897Z,94668.25
2019-03-15T01:09:59.192Z,94673.89
2019-03-15T01:12:26.558Z,94678.14
2019-03-15T01:14:53.909Z,94683.05
2019-03-15T01:17:21.225Z,94677.23
2019-03-15T01:19:48.556Z,94682.94
2019-03-15T01:22:15.901Z,94671.29
2019-03-15T01:24:43.173Z,94676.78
2019-03-15T01:27:10.503Z,94682.79
2019-03-15T01:29:37.901Z,94672.89
2019-03-15T01:32:05.202Z,94666.51
2019-03-15T01:34:32.525Z,94677.00
2019-03-15T01:36:59.819Z,94671.56
2019-03-15T01:39:27.284Z,94670.77
2019-03-15T01:41:54.577Z,94680.66
2019-03-15T01:44:21.883Z,94673.98
2019-03-15T01:46:49.254Z,94678.77
2019-03-15T01:49:16.592Z,94689.80
2019-03-15T01:51:43.941Z,94685.71
2019-03-15T01:54:11.299Z,94672.20
2019-03-15T01:56:38.677Z,94678.61
2019-03-15T01:59:06.035Z,94706.50
2019-03-15T02:01:33.361Z,94716.19
2019-03-15T02:04:00.730Z,94724.16
2019-03-15T02:06:28.090Z,94708.20
2019-03-15T02:08:55.439Z,94714.13
2019-03-15T02:11:22.764Z,94707.70
2019-03-15T02:13:50.103Z,94698.63
2019-03-15T02:16:17.419Z,94711.68
2019-03-15T02:18:44.712Z,94702.09
2019-03-15T02:21:12.056Z,94702.92
2019-03-15T02:23:39.396Z,94701.47
2019-03-15T02:26:06.673Z,94690.27
2019-03-15T02:28:34.022Z,94697.72
2019-03-15T02:31:01.464Z,94703.21
2019-03-15T02:33:28.761Z,94722.91
2019-03-15T02:35:56.057Z,94708.94
2019-03-15T02:38:23.397Z,94707.37
2019-03-15T02:40:50.758Z,94708.39
2019-03-15T02:43:19.113Z,94712.19
2019-03-15T02:45:46.621Z,94724.23
2019-03-15T02:48:13.919Z,94731.55
2019-03-15T02:50:41.200Z,94732.28
2019-03-15T02:53:09.150Z,94724.53
2019-03-15T02:55:36.636Z,94731.65
2019-03-15T02:58:03.940Z,94734.03
2019-03-15T03:00:31.273Z,94736.81
2019-03-15T03:02:58.658Z,94759.95
2019-03-15T03:05:25.943Z,94766.90
2019-03-15T03:07:53.245Z,94759.87
2019-03-15T03:10:20.587Z,94758.76
2019-03-15T03:12:47.876Z,94769.48
2019-03-15T03:15:15.196Z,94778.47
2019-03-15T03:17:42.543Z,94782.05
2019-03-15T03:20:09.993Z,94779.37
2019-03-15T03:22:37.287Z,94781.78
2019-03-15T03:25:04.758Z,94797.14
2019-03-15T03:27:32.069Z,94804.07
2019-03-15T03:29:59.352Z,94818.63
2019-03-15T03:32:26.708Z,94836.67
2019-03-15T03:34:54.001Z,94838.53
2019-03-15T03:37:21.311Z,94830.28
2019-03-15T03:39:48.703Z,94832.87
2019-03-15T03:42:16.040Z,94839.55
2019-03-15T03:44:43.303Z,94827.04
2019-03-15T03:47:10.739Z,94844.62
2019-03-15T03:49:38.076Z,94854.98
2019-03-15T03:52:05.352Z,94856.20
2019-03-15T03:54:32.695Z,94859.80
2019-03-15T03:57:00.136Z,94861.44
2019-03-15T03:59:27.492Z,94861.05
2019-03-15T04:01:54.844Z,94853.23
2019-03-15T04:04:22.239Z,94855.24
2019-03-15T04:06:49.552Z,94857.27
2019-03-15T04:09:16.876Z,94867.30
2019-03-15T04:11:54.875Z,94875.47
2019-03-15T04:14:13.436Z,94861.34
2019-03-15T04:16:40.776Z,94864.87
2019-03-15T04:19:08.051Z,94875.25
2019-03-15T04:21:35.401Z,94872.17
2019-03-15T04:24:02.719Z,94862.06
2019-03-15T04:26:30.080Z,94867.61
2019-03-15T04:28:57.412Z,94872.88
2019-03-15T04:31:24.726Z,94873.53
2019-03-15T04:33:52.038Z,94892.13
2019-03-15T04:36:19.375Z,94897.21
2019-03-15T04:38:47.396Z,94887.83
2019-03-15T04:41:14.731Z,94894.94
2019-03-15T04:43:43.011Z,94900.27
2019-03-15T04:46:10.317Z,94889.50
2019-03-15T04:48:37.873Z,94899.56
2019-03-15T04:51:05.186Z,94901.87
2019-03-15T04:53:32.513Z,94891.54
2019-03-15T04:55:59.817Z,94882.45
2019-03-15T04:58:27.156Z,94895.03
2019-03-15T05:00:54.442Z,94906.61
2019-03-15T05:03:21.778Z,94911.83
2019-03-15T05:06:02.075Z,94904.82
2019-03-15T05:08:18.240Z,94914.11
2019-03-15T05:10:45.598Z,94904.55
2019-03-15T05:13:12.900Z,94904.02
2019-03-15T05:15:40.240Z,94909.67
2019-03-15T05:18:07.704Z,94911.98
2019-03-15T05:20:35.194Z,94910.97
2019-03-15T05:23:02.474Z,94922.47
2019-03-15T05:25:30.127Z,94904.65
2019-03-15T05:27:57.813Z,94903.01
2019-03-15T05:30:25.176Z,94914.56
2019-03-15T05:32:52.517Z,94916.94
2019-03-15T05:35:19.907Z,94903.26
2019-03-15T05:37:47.222Z,94904.39
2019-03-15T05:40:14.561Z,94909.02
2019-03-15T05:42:42.036Z,94909.72
2019-03-15T05:45:09.505Z,94909.77
2019-03-15T05:47:36.742Z,94911.73
2019-03-15T05:50:04.956Z,94933.42
2019-03-15T05:52:32.312Z,94938.94
2019-03-15T05:54:59.670Z,94931.77
2019-03-15T05:57:26.994Z,94924.69
2019-03-15T05:59:54.318Z,94916.86
2019-03-15T06:02:21.774Z,94912.63
2019-03-15T06:04:49.119Z,94920.16
2019-03-15T06:07:17.734Z,94918.90
2019-03-15T06:09:45.137Z,94918.56
2019-03-15T06:12:12.449Z,94924.73
2019-03-15T06:14:39.837Z,94912.91
2019-03-15T06:17:07.204Z,94912.91
2019-03-15T06:19:34.531Z,94917.47
2019-03-15T06:22:01.858Z,94916.30
2019-03-15T06:24:29.196Z,94905.84
2019-03-15T06:26:56.473Z,94911.74
2019-03-15T06:29:23.893Z,94931.88
2019-03-15T06:31:51.257Z,94949.77
2019-03-15T06:34:18.588Z,94953.58
2019-03-15T06:36:45.899Z,94943.97
2019-03-15T06:39:13.246Z,94932.96
2019-03-15T06:41:40.566Z,94917.45
2019-03-15T06:44:07.932Z,94922.41
2019-03-15T06:46:35.257Z,94943.05
2019-03-15T06:49:02.778Z,94951.57
2019-03-15T06:51:30.071Z,94954.13
2019-03-15T06:54:10.544Z,94955.95
2019-03-15T06:56:27.764Z,94960.95
2019-03-15T06:58:55.399Z,94965.73
2019-03-15T07:01:22.805Z,94969.70
2019-03-15T07:03:52.317Z,94979.06
2019-03-15T07:06:19.604Z,94979.19
2019-03-15T07:08:46.979Z,94990.66
2019-03-15T07:11:15.823Z,94992.33
2019-03-15T07:13:43.153Z,94987.36
2019-03-15T07:16:10.477Z,94978.31
2019-03-15T07:18:37.765Z,94967.12
2019-03-15T07:21:05.098Z,94970.58
2019-03-15T07:23:34.555Z,94984.43
2019-03-15T07:26:01.875Z,94989.46
2019-03-15T07:28:29.198Z,94991.03
2019-03-15T07:30:56.517Z,94993.41
2019-03-15T07:33:23.857Z,94994.39
2019-03-15T07:35:53.671Z,94990.91
2019-03-15T07:38:21.065Z,94991.22
2019-03-15T07:40:48.431Z,94996.38
2019-03-15T07:43:15.731Z,95000.75
2019-03-15T07:45:43.067Z,95015.22
2019-03-15T07:48:21.633Z,95014.70
2019-03-15T07:50:39.674Z,95015.44
2019-03-15T07:53:07.010Z,95027.43
2019-03-15T07:55:34.523Z,95021.50
2019-03-15T07:58:01.781Z,95025.48
2019-03-15T08:00:29.169Z,95026.88
2019-03-15T08:02:56.503Z,95030.98
2019-03-15T08:05:23.827Z,95032.37
2019-03-15T08:07:51.134Z,95030.02
2019-03-15T08:10:18.426Z,95039.23
2019-03-15T08:12:49.190Z,95030.11
2019-03-15T08:15:17.179Z,95033.67
2019-03-15T08:17:44.551Z,95039.31
2019-03-15T08:20:12.684Z,95043.70
2019-03-15T08:22:40.027Z,95043.19
2019-03-15T08:25:09.982Z,95044.41
2019-03-15T08:27:37.346Z,95048.64
2019-03-15T08:30:07.007Z,95056.09
2019-03-15T08:32:34.366Z,95061.77
2019-03-15T08:35:03.890Z,95062.31
2019-03-15T08:37:30.917Z,95063.95
2019-03-15T08:39:58.313Z,95061.42
2019-03-15T08:42:25.676Z,95069.90
2019-03-15T08:44:53.006Z,95059.55
2019-03-15T08:47:21.739Z,95064.95
2019-03-15T08:49:49.357Z,95065.73
2019-03-15T08:52:16.699Z,95066.49
2019-03-15T08:54:46.667Z,95058.03
2019-03-15T08:57:13.568Z,95056.27
2019-03-15T08:59:53.808Z,95059.48
2019-03-15T09:02:10.168Z,95056.52
2019-03-15T09:04:37.509Z,95059.73
2019-03-15T09:07:04.865Z,95062.77
2019-03-15T09:09:32.181Z,95056.69
2019-03-15T09:11:59.506Z,95058.05
2019-03-15T09:14:26.837Z,95052.13
2019-03-15T09:16:54.243Z,95055.78
2019-03-15T09:19:21.537Z,95059.67
2019-03-15T09:21:48.897Z,95049.06
2019-03-15T09:24:16.261Z,95042.66
2019-03-15T09:26:43.704Z,95033.88
2019-03-15T09:29:11.005Z,95035.20
2019-03-15T09:31:47.482Z,95039.64
2019-03-15T09:34:07.817Z,95038.00
2019-03-15T09:36:49.037Z,95035.89
2019-03-15T09:39:05.981Z,95029.14
2019-03-15T09:41:39.480Z,95034.60
2019-03-15T09:44:02.931Z,95037.59
2019-03-15T09:46:30.594Z,95033.70
2019-03-15T09:48:59.806Z,95029.14
2019-03-15T09:51:27.706Z,95026.52
2019-03-15T09:53:55.008Z,95029.50
2019-03-15T09:56:22.385Z,95021.22
2019-03-15T09:58:49.697Z,95024.22
2019-03-15T10:01:33.606Z,95016.41
2019-03-15T10:03:46.336Z,95025.17
2019-03-15T10:06:16.543Z,95016.80
2019-03-15T10:08:42.981Z,95021.88
2019-03-15T10:11:10.365Z,95022.95
2019-03-15T10:13:37.691Z,95024.02
2019-03-15T10:16:05.097Z,95027.88
2019-03-15T10:18:32.414Z,95020.02
2019-03-15T10:20:59.779Z,95033.30
2019-03-15T10:23:29.741Z,95019.22
2019-03-15T10:25:57.091Z,95023.81
2019-03-15T10:28:24.407Z,95012.94
2019-03-15T10:30:51.780Z,95011.02
2019-03-15T10:33:19.204Z,95008.96
2019-03-15T10:35:46.509Z,95010.80
2019-03-15T10:38:16.562Z,95002.88
2019-03-15T10:40:43.132Z,94998.92
2019-03-15T10:43:10.466Z,95000.30
2019-03-15T10:45:37.817Z,95009.13
2019-03-15T10:48:07.909Z,95010.05
2019-03-15T10:50:34.419Z,95012.77
2019-03-15T10:53:01.797Z,95012.25
2019-03-15T10:55:29.177Z,95012.09
2019-03-15T10:57:56.617Z,95007.75
2019-03-15T11:00:24.112Z,95002.50
2019-03-15T11:02:51.447Z,95014.67
2019-03-15T11:05:18.871Z,95015.29
2019-03-15T11:07:46.202Z,95009.34
2019-03-15T11:10:13.574Z,95016.80
2019-03-15T11:12:41.071Z,95017.03
2019-03-15T11:15:08.709Z,95013.38
2019-03-15T11:17:36.085Z,95006.16
2019-03-15T11:20:03.705Z,95015.34
2019-03-15T11:22:31.154Z,95021.05
2019-03-15T11:24:59.800Z,95024.02
2019-03-15T11:27:27.172Z,95018.30
2019-03-15T11:29:54.531Z,95027.05
2019-03-15T11:32:21.880Z,95025.30
2019-03-15T11:34:49.338Z,95030.92
2019-03-15T11:37:16.672Z,95028.72
2019-03-15T11:39:44.051Z,95036.19
2019-03-15T11:42:11.398Z,95027.30
2019-03-15T11:44:38.739Z,95030.80
2019-03-15T11:47:06.257Z,95031.01
2019-03-15T11:49:33.750Z,95028.58
2019-03-15T11:52:01.193Z,95037.55
2019-03-15T11:54:28.692Z,95028.41
2019-03-15T11:56:56.088Z,95018.30
2019-03-15T11:59:23.457Z,95017.23
2019-03-15T12:02:03.155Z,95020.67
2019-03-15T12:04:20.152Z,95022.13
2019-03-15T12:06:47.499Z,95019.53
2019-03-15T12:09:14.971Z,95020.73
2019-03-15T12:11:42.331Z,95022.50
2019-03-15T12:14:09.715Z,95023.50
2019-03-15T12:16:37.151Z,95022.03
2019-03-15T12:19:04.548Z,95022.42
2019-03-15T12:21:31.967Z,95029.72
2019-03-15T12:23:59.329Z,95029.33
2019-03-15T12:26:39.469Z,95019.98
2019-03-15T12:28:55.968Z,95032.91
2019-03-15T12:31:23.271Z,95023.41
2019-03-15T12:33:50.807Z,95024.52
2019-03-15T12:36:18.177Z,95035.61
2019-03-15T12:38:45.721Z,95021.79
2019-03-15T12:41:13.261Z,95029.55
2019-03-15T12:43:40.748Z,95016.61
2019-03-15T12:46:08.161Z,95027.17
2019-03-15T12:48:36.028Z,95020.02
2019-03-15T12:51:03.792Z,95019.03
2019-03-15T12:53:31.301Z,95028.53
2019-03-15T12:55:58.858Z,95022.43
2019-03-15T12:58:26.242Z,95017.05
2019-03-15T13:00:53.807Z,95019.09
2019-03-15T13:03:21.238Z,95021.97
2019-03-15T13:05:48.744Z,95014.58
2019-03-15T13:08:16.374Z,95014.73
2019-03-15T13:10:43.820Z,95014.47
2019-03-15T13:13:11.381Z,95005.87
2019-03-15T13:15:38.759Z,95007.48
2019-03-15T13:18:07.643Z,94998.25
2019-03-15T13:20:35.219Z,95004.55
2019-03-15T13:23:02.619Z,95008.05
2019-03-15T13:25:30.137Z,95008.20
2019-03-15T13:27:57.845Z,94997.09
2019-03-15T13:30:25.431Z,95018.23
2019-03-15T13:32:52.891Z,95003.45
2019-03-15T13:35:20.635Z,95002.23
2019-03-15T13:37:48.341Z,95008.77
2019-03-15T13:40:16.046Z,95007.33
2019-03-15T13:42:43.537Z,95008.83
2019-03-15T13:45:11.221Z,95021.63
2019-03-15T13:47:38.892Z,95019.14
2019-03-15T13:50:07.916Z,95014.98
2019-03-15T13:52:35.856Z,95000.73
2019-03-15T13:55:03.451Z,95013.18
2019-03-15T13:57:31.022Z,95015.31
2019-03-15T13:59:58.610Z,95014.84
2019-03-15T14:02:26.242Z,95011.09
2019-03-15T14:04:53.892Z,95019.24
2019-03-15T14:07:21.444Z,95008.23
2019-03-15T14:09:49.122Z,95018.78
2019-03-15T14:12:16.879Z,95003.74
2019-03-15T14:14:44.474Z,95020.41
2019-03-15T14:17:12.094Z,95002.27
2019-03-15T14:19:39.691Z,95007.39
2019-03-15T14:22:07.255Z,95011.84
2019-03-15T14:24:34.858Z,95010.63
2019-03-15T14:27:02.687Z,95006.51
2019-03-15T14:29:30.346Z,94999.94
2019-03-15T14:31:57.932Z,95011.14
2019-03-15T14:34:25.634Z,94998.09
2019-03-15T14:36:53.580Z,94997.26
2019-03-15T14:39:21.245Z,94997.02
2019-03-15T14:41:48.835Z,95005.91
2019-03-15T14:44:18.317Z,94992.30
2019-03-15T14:46:46.346Z,95011.13
2019-03-15T14:49:14.001Z,94994.00
2019-03-15T14:51:41.673Z,94998.81
2019-03-15T14:54:09.597Z,94989.27
2019-03-15T14:56:37.259Z,94993.29
2019-03-15T14:59:04.915Z,95000.05
2019-03-15T15:01:32.956Z,94995.17
2019-03-15T15:04:00.575Z,94986.63
2019-03-15T15:06:28.248Z,94984.49
2019-03-15T15:08:55.860Z,94983.05
2019-03-15T15:11:25.736Z,94989.52
2019-03-15T15:13:53.054Z,95001.47
2019-03-15T15:16:20.729Z,94998.50
2019-03-15T15:18:48.386Z,94999.00
2019-03-15T15:21:15.982Z,94999.37
2019-03-15T15:23:43.757Z,94995.04
2019-03-15T15:26:11.488Z,95003.66
2019-03-15T15:28:39.178Z,94996.61
2019-03-15T15:31:06.781Z,94993.95
2019-03-15T15:33:34.452Z,94982.53
2019-03-15T15:36:02.176Z,94993.58
2019-03-15T15:38:29.757Z,94987.27
2019-03-15T15:40:57.416Z,94991.65
2019-03-15T15:43:25.087Z,94993.50
2019-03-15T15:45:52.716Z,94994.08
2019-03-15T15:48:21.267Z,94978.95
2019-03-15T15:50:49.274Z,94977.67
2019-03-15T15:53:16.931Z,94989.52
2019-03-15T15:55:45.116Z,94970.33
2019-03-15T15:58:17.968Z,94981.02
2019-03-15T16:00:42.499Z,94950.72
2019-03-15T16:03:10.148Z,94950.52
2019-03-15T16:05:37.815Z,94953.11
2019-03-15T16:08:05.631Z,94951.82
2019-03-15T16:10:33.384Z,94938.84
2019-03-15T16:13:02.794Z,94940.81
2019-03-15T16:15:31.132Z,94940.05
2019-03-15T16:17:58.839Z,94933.67
2019-03-15T16:20:26.473Z,94941.09
2019-03-15T16:22:54.137Z,94933.37
2019-03-15T16:25:21.798Z,94945.45
2019-03-15T16:27:49.810Z,94940.80
2019-03-15T16:30:17.662Z,94945.72
2019-03-15T16:32:45.319Z,94960.84
2019-03-15T16:35:13.196Z,94954.52
2019-03-15T16:37:43.697Z,94944.70
2019-03-15T16:40:11.714Z,94955.09
2019-03-15T16:42:39.362Z,94961.02
2019-03-15T16:45:09.725Z,94963.05
2019-03-15T16:47:37.512Z,94976.59
2019-03-15T16:50:06.644Z,94970.37
2019-03-15T16:52:34.379Z,94968.98
2019-03-15T16:55:02.094Z,94952.59
2019-03-15T16:57:29.711Z,94961.95
2019-03-15T16:59:58.545Z,94948.50
2019-03-15T17:02:26.220Z,94958.59
2019-03-15T17:04:53.936Z,94968.14
2019-03-15T17:07:21.698Z,94980.95
2019-03-15T17:09:50.576Z,94985.86
2019-03-15T17:12:18.408Z,94998.11
2019-03-15T17:14:46.109Z,94988.91
2019-03-15T17:17:13.893Z,94997.08
2019-03-15T17:19:41.581Z,94986.59
2019-03-15T17:22:09.302Z,94988.91
2019-03-15T17:24:37.075Z,94987.52
2019-03-15T17:27:04.840Z,95002.53
2019-03-15T17:29:32.512Z,95000.80
2019-03-15T17:32:00.246Z,95000.77
2019-03-15T17:34:28.033Z,95000.77
2019-03-15T17:37:06.065Z,94998.83
2019-03-15T17:39:25.533Z,94991.03
2019-03-15T17:41:53.593Z,94999.20
2019-03-15T17:44:21.272Z,94995.11
2019-03-15T17:46:49.261Z,95014.52
2019-03-15T17:49:17.261Z,95015.72
2019-03-15T17:51:45.488Z,95031.84
2019-03-15T17:54:14.269Z,95010.98
2019-03-15T17:56:42.133Z,95005.95
2019-03-15T17:59:12.610Z,95014.48
2019-03-15T18:01:39.550Z,95027.31
2019-03-15T18:04:07.493Z,95023.41
2019-03-15T18:06:35.934Z,95010.31
2019-03-15T18:09:05.342Z,95017.80
2019-03-15T18:11:35.876Z,95023.35
2019-03-15T18:14:05.000Z,95009.27
2019-03-15T18:19:21.656Z,95019.10
2019-03-15T18:21:49.424Z,95016.06
2019-03-15T18:24:17.536Z,95018.83
2019-03-15T18:26:45.446Z,95014.92
2019-03-15T18:29:25.850Z,95031.04
2019-03-15T18:31:42.804Z,95031.47
2019-03-15T18:34:10.759Z,95027.89
2019-03-15T18:36:38.589Z,95028.16
2019-03-15T18:39:08.074Z,95022.63
2019-03-15T18:41:37.324Z,95023.33
2019-03-15T18:44:04.983Z,95040.23
2019-03-15T18:46:32.777Z,95035.94
2019-03-15T18:49:00.488Z,95034.52
2019-03-15T18:51:29.796Z,95037.70
2019-03-15T18:53:58.878Z,95030.73
2019-03-15T18:56:28.031Z,95040.18
2019-03-15T18:58:55.960Z,95042.73
2019-03-15T19:01:24.467Z,95043.28
2019-03-15T19:03:52.415Z,95045.52
2019-03-15T19:06:20.155Z,95044.51
2019-03-15T19:08:47.875Z,95049.28
2019-03-15T19:11:16.057Z,95032.61
2019-03-15T19:13:43.746Z,95037.11
2019-03-15T19:16:20.015Z,95051.07
2019-03-15T19:18:41.631Z,95044.59
2019-03-15T19:21:09.596Z,95044.59
2019-03-15T19:23:37.492Z,95048.80
2019-03-15T19:26:05.639Z,95058.63
2019-03-15T19:28:34.464Z,95057.56
2019-03-15T19:31:02.374Z,95048.37
2019-03-15T19:33:30.184Z,95066.20
2019-03-15T19:35:57.864Z,95063.11
2019-03-15T19:38:26.035Z,95062.00
2019-03-15T19:40:54.599Z,95058.93
2019-03-15T19:43:22.391Z,95053.83
2019-03-15T19:45:50.035Z,95047.41
2019-03-15T19:48:18.822Z,95040.53
2019-03-15T19:50:49.101Z,95044.53
2019-03-15T19:53:16.901Z,95037.43
2019-03-15T19:55:46.242Z,95043.81
2019-03-15T19:58:14.792Z,95032.95
2019-03-15T20:00:42.510Z,95040.05
2019-03-15T20:03:10.128Z,95030.70
2019-03-15T20:05:37.962Z,95031.73
2019-03-15T20:08:05.762Z,95020.23
2019-03-15T20:10:33.909Z,95026.94
2019-03-15T20:13:05.771Z,95034.83
2019-03-15T20:15:33.533Z,95024.42
2019-03-15T20:21:50.851Z,95021.88
2019-03-15T20:24:18.859Z,95019.00
2019-03-15T20:30:02.015Z,95027.24
2019-03-15T20:33:13.156Z,95016.58
2019-03-15T20:35:46.008Z,95012.31
2019-03-15T20:38:14.243Z,95017.41
2019-03-15T20:40:42.352Z,95029.27
2019-03-15T20:43:10.370Z,95018.60
2019-03-15T20:45:38.390Z,95033.03
2019-03-15T20:48:06.148Z,95027.85
2019-03-15T20:50:46.217Z,95026.59
2019-03-15T20:53:09.775Z,95016.14
2019-03-15T20:55:38.014Z,95046.87
2019-03-15T20:58:06.054Z,95034.98
2019-03-15T21:00:35.826Z,95030.07
2019-03-15T21:03:04.497Z,95031.95
2019-03-15T21:05:32.154Z,95034.38
2019-03-15T21:08:00.946Z,95039.17
2019-03-15T21:10:29.901Z,95046.81
2019-03-15T21:12:57.624Z,95053.68
2019-03-15T21:15:25.346Z,95041.06
2019-03-15T21:17:53.065Z,95041.78
2019-03-15T21:20:22.536Z,95016.29
2019-03-15T21:22:50.485Z,95034.30
2019-03-15T21:25:19.942Z,95039.69
2019-03-15T21:27:54.191Z,95035.31
2019-03-15T21:30:17.587Z,95028.33
2019-03-15T21:32:45.182Z,95033.61
2019-03-15T21:35:12.909Z,95033.32
2019-03-15T21:37:40.835Z,95046.37
2019-03-15T21:40:09.440Z,95038.13
2019-03-15T21:42:40.152Z,95024.97
2019-03-15T21:45:08.100Z,95027.27
2019-03-15T21:47:35.622Z,95024.58
2019-03-15T21:50:06.677Z,95013.55
2019-03-15T21:52:34.372Z,95023.50
2019-03-15T21:55:02.003Z,95014.88
2019-03-15T21:57:29.662Z,95008.91
2019-03-15T21:59:57.599Z,95023.91
2019-03-15T22:02:25.221Z,95032.18
2019-03-15T22:04:52.977Z,95023.21
2019-03-15T22:07:20.403Z,95009.30
2019-03-15T22:09:47.771Z,95022.16
2019-03-15T22:12:15.235Z,95029.84
2019-03-15T22:14:42.597Z,95022.11
2019-03-15T22:17:09.919Z,95018.61
2019-03-15T22:19:37.283Z,95028.92
2019-03-15T22:22:04.598Z,95014.90
2019-03-15T22:24:31.936Z,95002.50
2019-03-15T22:26:59.280Z,95004.72
2019-03-15T22:29:27.756Z,95004.97
2019-03-15T22:31:55.182Z,95022.23
2019-03-15T22:34:22.627Z,95033.05
2019-03-15T22:36:49.945Z,95022.59
2019-03-15T22:39:17.296Z,95019.42
2019-03-15T22:41:44.697Z,95029.47
2019-03-15T22:44:12.033Z,95030.58
2019-03-15T22:46:39.307Z,95048.09
2019-03-15T22:49:06.616Z,95020.91
2019-03-15T22:51:33.991Z,95046.35
2019-03-15T22:54:01.315Z,95036.78
2019-03-15T22:56:28.607Z,95039.60
2019-03-15T22:58:55.957Z,95036.75
2019-03-15T23:01:30.265Z,95030.87
2019-03-15T23:03:52.513Z,95037.28
2019-03-15T23:06:19.951Z,95034.69
2019-03-15T23:08:47.566Z,95018.16
2019-03-15T23:11:16.335Z,95032.20
2019-03-15T23:13:43.716Z,95024.86
2019-03-15T23:16:11.055Z,95052.25
2019-03-15T23:18:38.374Z,95042.58
2019-03-15T23:21:05.683Z,95042.31
2019-03-15T23:23:32.984Z,95050.75
2019-03-15T23:26:00.346Z,95039.36
2019-03-15T23:28:27.765Z,95041.09
2019-03-15T23:30:55.076Z,95049.24
2019-03-15T23:33:22.505Z,95053.08
2019-03-15T23:35:54.182Z,95045.75
2019-03-15T23:38:20.736Z,95041.59
2019-03-15T23:40:48.070Z,95051.32
2019-03-15T23:43:15.395Z,95043.80
2019-03-15T23:45:42.680Z,95049.39
2019-03-15T23:48:10.013Z,95045.75
2019-03-15T23:50:37.415Z,95048.36
2019-03-15T23:53:04.756Z,95047.16
2019-03-15T23:55:32.055Z,95050.95
2019-03-15T23:57:59.316Z,95051.59
